sensor_id;sensor_type;location;lat;lon;timestamp;P1;durP1;ratioP1;P2;durP2;ratioP2
4023;SDS011;2026;51.002;13.668;2023-05-31T00:01:08;6.80;;;4.10;;
4023;SDS011;2026;51.002;13.668;2023-05-31T00:06:12;6.33;;;3.87;;
4023;SDS011;2026;51.002;13.668;2023-05-31T00:11:15;7.13;;;4.70;;
4023;SDS011;2026;51.002;13.668;2023-05-31T00:16:18;6.17;;;4.47;;
4023;SDS011;2026;51.002;13.668;2023-05-31T00:21:43;7.23;;;4.03;;
4023;SDS011;2026;51.002;13.668;2023-05-31T00:26:47;5.93;;;3.40;;
4023;SDS011;2026;51.002;13.668;2023-05-31T00:31:50;5.33;;;3.50;;
4023;SDS011;2026;51.002;13.668;2023-05-31T00:36:55;4.33;;;3.40;;
4023;SDS011;2026;51.002;13.668;2023-05-31T00:41:58;4.77;;;3.60;;
4023;SDS011;2026;51.002;13.668;2023-05-31T00:47:01;5.67;;;3.43;;
4023;SDS011;2026;51.002;13.668;2023-05-31T00:52:05;5.53;;;3.90;;
4023;SDS011;2026;51.002;13.668;2023-05-31T00:57:09;5.70;;;3.30;;
4023;SDS011;2026;51.002;13.668;2023-05-31T01:02:12;6.50;;;3.93;;
4023;SDS011;2026;51.002;13.668;2023-05-31T01:07:20;5.27;;;3.47;;
4023;SDS011;2026;51.002;13.668;2023-05-31T01:12:25;6.37;;;3.40;;
4023;SDS011;2026;51.002;13.668;2023-05-31T01:17:37;8.80;;;4.00;;
4023;SDS011;2026;51.002;13.668;2023-05-31T01:22:55;7.33;;;3.77;;
4023;SDS011;2026;51.002;13.668;2023-05-31T01:28:15;4.90;;;3.30;;
4023;SDS011;2026;51.002;13.668;2023-05-31T01:33:19;5.57;;;3.80;;
4023;SDS011;2026;51.002;13.668;2023-05-31T01:38:23;5.70;;;3.40;;
4023;SDS011;2026;51.002;13.668;2023-05-31T01:43:30;4.20;;;3.40;;
4023;SDS011;2026;51.002;13.668;2023-05-31T01:48:33;4.80;;;3.60;;
4023;SDS011;2026;51.002;13.668;2023-05-31T01:53:37;7.13;;;3.67;;
4023;SDS011;2026;51.002;13.668;2023-05-31T01:58:41;6.03;;;3.30;;
4023;SDS011;2026;51.002;13.668;2023-05-31T02:03:50;5.63;;;3.70;;
4023;SDS011;2026;51.002;13.668;2023-05-31T02:08:54;5.23;;;3.50;;
4023;SDS011;2026;51.002;13.668;2023-05-31T02:14:02;8.20;;;5.40;;
4023;SDS011;2026;51.002;13.668;2023-05-31T02:19:05;10.10;;;5.67;;
4023;SDS011;2026;51.002;13.668;2023-05-31T02:24:08;11.60;;;7.30;;
4023;SDS011;2026;51.002;13.668;2023-05-31T02:29:12;8.80;;;5.53;;
4023;SDS011;2026;51.002;13.668;2023-05-31T02:34:15;9.13;;;4.80;;
4023;SDS011;2026;51.002;13.668;2023-05-31T02:39:19;10.07;;;5.00;;
4023;SDS011;2026;51.002;13.668;2023-05-31T02:44:24;5.70;;;4.10;;
4023;SDS011;2026;51.002;13.668;2023-05-31T02:49:27;9.90;;;4.50;;
4023;SDS011;2026;51.002;13.668;2023-05-31T02:54:30;9.73;;;3.93;;
4023;SDS011;2026;51.002;13.668;2023-05-31T02:59:35;6.40;;;3.90;;
4023;SDS011;2026;51.002;13.668;2023-05-31T03:04:42;7.40;;;4.20;;
4023;SDS011;2026;51.002;13.668;2023-05-31T03:09:48;9.73;;;5.10;;
4023;SDS011;2026;51.002;13.668;2023-05-31T03:14:52;10.47;;;5.13;;
4023;SDS011;2026;51.002;13.668;2023-05-31T03:19:55;7.90;;;5.40;;
4023;SDS011;2026;51.002;13.668;2023-05-31T03:24:59;8.20;;;5.37;;
4023;SDS011;2026;51.002;13.668;2023-05-31T03:30:03;7.37;;;5.40;;
4023;SDS011;2026;51.002;13.668;2023-05-31T03:35:13;12.53;;;6.30;;
4023;SDS011;2026;51.002;13.668;2023-05-31T03:40:17;6.93;;;5.37;;
4023;SDS011;2026;51.002;13.668;2023-05-31T03:45:22;9.03;;;5.30;;
4023;SDS011;2026;51.002;13.668;2023-05-31T03:50:27;8.60;;;5.60;;
4023;SDS011;2026;51.002;13.668;2023-05-31T03:55:30;6.87;;;5.43;;
4023;SDS011;2026;51.002;13.668;2023-05-31T04:00:35;7.37;;;4.73;;
4023;SDS011;2026;51.002;13.668;2023-05-31T04:05:38;9.03;;;4.50;;
4023;SDS011;2026;51.002;13.668;2023-05-31T04:10:42;7.27;;;4.00;;
4023;SDS011;2026;51.002;13.668;2023-05-31T04:15:47;7.43;;;4.20;;
4023;SDS011;2026;51.002;13.668;2023-05-31T04:20:52;6.13;;;4.87;;
4023;SDS011;2026;51.002;13.668;2023-05-31T04:25:55;6.17;;;4.07;;
4023;SDS011;2026;51.002;13.668;2023-05-31T04:31:00;6.70;;;4.47;;
4023;SDS011;2026;51.002;13.668;2023-05-31T04:36:07;6.63;;;4.00;;
4023;SDS011;2026;51.002;13.668;2023-05-31T04:41:11;6.87;;;4.30;;
4023;SDS011;2026;51.002;13.668;2023-05-31T04:46:17;6.77;;;4.33;;
4023;SDS011;2026;51.002;13.668;2023-05-31T04:51:22;7.60;;;4.67;;
4023;SDS011;2026;51.002;13.668;2023-05-31T04:56:25;5.03;;;3.90;;
4023;SDS011;2026;51.002;13.668;2023-05-31T05:01:30;8.50;;;4.67;;
4023;SDS011;2026;51.002;13.668;2023-05-31T05:06:38;7.40;;;4.00;;
4023;SDS011;2026;51.002;13.668;2023-05-31T05:11:43;5.90;;;3.70;;
4023;SDS011;2026;51.002;13.668;2023-05-31T05:16:48;4.60;;;3.50;;
4023;SDS011;2026;51.002;13.668;2023-05-31T05:21:51;5.20;;;3.40;;
4023;SDS011;2026;51.002;13.668;2023-05-31T05:26:56;4.00;;;3.27;;
4023;SDS011;2026;51.002;13.668;2023-05-31T05:32:02;6.73;;;3.87;;
4023;SDS011;2026;51.002;13.668;2023-05-31T05:37:05;6.23;;;3.83;;
4023;SDS011;2026;51.002;13.668;2023-05-31T05:42:09;4.67;;;3.40;;
4023;SDS011;2026;51.002;13.668;2023-05-31T05:47:15;3.67;;;2.90;;
4023;SDS011;2026;51.002;13.668;2023-05-31T05:52:18;5.30;;;3.20;;
4023;SDS011;2026;51.002;13.668;2023-05-31T05:57:22;7.27;;;3.90;;
4023;SDS011;2026;51.002;13.668;2023-05-31T06:02:33;5.40;;;3.37;;
4023;SDS011;2026;51.002;13.668;2023-05-31T06:07:36;5.57;;;3.57;;
4023;SDS011;2026;51.002;13.668;2023-05-31T06:12:39;4.73;;;3.40;;
4023;SDS011;2026;51.002;13.668;2023-05-31T06:17:44;8.20;;;3.47;;
4023;SDS011;2026;51.002;13.668;2023-05-31T06:22:49;6.50;;;3.80;;
4023;SDS011;2026;51.002;13.668;2023-05-31T06:27:53;4.97;;;3.60;;
4023;SDS011;2026;51.002;13.668;2023-05-31T06:33:00;5.70;;;3.10;;
4023;SDS011;2026;51.002;13.668;2023-05-31T06:38:04;5.07;;;3.77;;
4023;SDS011;2026;51.002;13.668;2023-05-31T06:43:07;6.37;;;3.50;;
4023;SDS011;2026;51.002;13.668;2023-05-31T06:48:34;6.90;;;3.30;;
4023;SDS011;2026;51.002;13.668;2023-05-31T06:53:55;9.77;;;3.87;;
4023;SDS011;2026;51.002;13.668;2023-05-31T06:59:00;10.10;;;3.87;;
4023;SDS011;2026;51.002;13.668;2023-05-31T07:04:05;7.03;;;3.67;;
4023;SDS011;2026;51.002;13.668;2023-05-31T07:09:08;7.80;;;3.55;;
4023;SDS011;2026;51.002;13.668;2023-05-31T07:14:32;5.77;;;3.37;;
4023;SDS011;2026;51.002;13.668;2023-05-31T07:19:44;4.68;;;3.25;;
4023;SDS011;2026;51.002;13.668;2023-05-31T07:24:47;6.07;;;3.00;;
4023;SDS011;2026;51.002;13.668;2023-05-31T07:29:50;7.50;;;3.20;;
4023;SDS011;2026;51.002;13.668;2023-05-31T07:36:08;7.13;;;2.47;;
4023;SDS011;2026;51.002;13.668;2023-05-31T07:48:13;6.88;;;2.42;;
4023;SDS011;2026;51.002;13.668;2023-05-31T07:53:17;4.05;;;2.35;;
4023;SDS011;2026;51.002;13.668;2023-05-31T07:58:20;6.72;;;3.13;;
4023;SDS011;2026;51.002;13.668;2023-05-31T08:03:23;6.65;;;2.85;;
4023;SDS011;2026;51.002;13.668;2023-05-31T08:08:29;4.43;;;2.20;;
4023;SDS011;2026;51.002;13.668;2023-05-31T08:13:34;8.00;;;2.50;;
4023;SDS011;2026;51.002;13.668;2023-05-31T08:18:37;6.43;;;3.00;;
4023;SDS011;2026;51.002;13.668;2023-05-31T08:23:41;4.35;;;2.28;;
4023;SDS011;2026;51.002;13.668;2023-05-31T08:28:45;9.40;;;3.35;;
4023;SDS011;2026;51.002;13.668;2023-05-31T08:33:54;3.58;;;2.50;;
4023;SDS011;2026;51.002;13.668;2023-05-31T08:38:59;5.60;;;2.58;;
4023;SDS011;2026;51.002;13.668;2023-05-31T08:44:05;3.50;;;2.20;;
4023;SDS011;2026;51.002;13.668;2023-05-31T08:49:08;8.35;;;2.80;;
4023;SDS011;2026;51.002;13.668;2023-05-31T08:54:14;4.82;;;3.10;;
4023;SDS011;2026;51.002;13.668;2023-05-31T08:59:19;20.10;;;2.95;;
4023;SDS011;2026;51.002;13.668;2023-05-31T09:04:23;3.45;;;2.30;;
4023;SDS011;2026;51.002;13.668;2023-05-31T09:09:29;5.28;;;2.60;;
4023;SDS011;2026;51.002;13.668;2023-05-31T09:14:32;5.50;;;2.45;;
4023;SDS011;2026;51.002;13.668;2023-05-31T09:19:39;4.95;;;2.28;;
4023;SDS011;2026;51.002;13.668;2023-05-31T09:24:50;3.00;;;2.65;;
4023;SDS011;2026;51.002;13.668;2023-05-31T09:29:53;6.43;;;2.88;;
4023;SDS011;2026;51.002;13.668;2023-05-31T09:35:04;4.40;;;2.50;;
4023;SDS011;2026;51.002;13.668;2023-05-31T09:40:14;7.63;;;2.65;;
4023;SDS011;2026;51.002;13.668;2023-05-31T09:45:17;3.25;;;1.98;;
4023;SDS011;2026;51.002;13.668;2023-05-31T09:50:22;6.28;;;3.03;;
4023;SDS011;2026;51.002;13.668;2023-05-31T09:55:37;4.32;;;2.60;;
4023;SDS011;2026;51.002;13.668;2023-05-31T10:00:43;3.65;;;2.63;;
4023;SDS011;2026;51.002;13.668;2023-05-31T10:05:47;2.92;;;2.53;;
4023;SDS011;2026;51.002;13.668;2023-05-31T10:10:53;5.07;;;2.72;;
4023;SDS011;2026;51.002;13.668;2023-05-31T10:15:57;7.45;;;2.40;;
4023;SDS011;2026;51.002;13.668;2023-05-31T10:21:06;4.38;;;2.45;;
4023;SDS011;2026;51.002;13.668;2023-05-31T10:26:13;4.53;;;2.60;;
4023;SDS011;2026;51.002;13.668;2023-05-31T10:31:19;3.65;;;2.13;;
4023;SDS011;2026;51.002;13.668;2023-05-31T10:36:25;2.83;;;2.10;;
4023;SDS011;2026;51.002;13.668;2023-05-31T10:41:33;4.60;;;2.42;;
4023;SDS011;2026;51.002;13.668;2023-05-31T10:46:43;6.95;;;2.65;;
4023;SDS011;2026;51.002;13.668;2023-05-31T10:51:49;2.88;;;1.95;;
4023;SDS011;2026;51.002;13.668;2023-05-31T10:56:54;2.25;;;1.95;;
4023;SDS011;2026;51.002;13.668;2023-05-31T11:01:57;4.75;;;2.22;;
4023;SDS011;2026;51.002;13.668;2023-05-31T11:07:11;3.85;;;2.30;;
4023;SDS011;2026;51.002;13.668;2023-05-31T11:12:26;2.80;;;2.25;;
4023;SDS011;2026;51.002;13.668;2023-05-31T11:17:40;5.18;;;2.00;;
4023;SDS011;2026;51.002;13.668;2023-05-31T11:28:53;3.17;;;2.00;;
4023;SDS011;2026;51.002;13.668;2023-05-31T11:34:09;2.60;;;2.13;;
4023;SDS011;2026;51.002;13.668;2023-05-31T11:39:20;4.93;;;2.28;;
4023;SDS011;2026;51.002;13.668;2023-05-31T11:44:28;5.15;;;2.38;;
4023;SDS011;2026;51.002;13.668;2023-05-31T11:49:32;3.58;;;2.45;;
4023;SDS011;2026;51.002;13.668;2023-05-31T11:54:35;3.88;;;2.00;;
4023;SDS011;2026;51.002;13.668;2023-05-31T11:59:40;6.32;;;2.30;;
4023;SDS011;2026;51.002;13.668;2023-05-31T12:04:43;4.80;;;2.42;;
4023;SDS011;2026;51.002;13.668;2023-05-31T12:09:46;3.35;;;2.08;;
4023;SDS011;2026;51.002;13.668;2023-05-31T12:14:51;5.18;;;2.35;;
4023;SDS011;2026;51.002;13.668;2023-05-31T12:19:56;3.65;;;2.58;;
4023;SDS011;2026;51.002;13.668;2023-05-31T12:24:59;4.05;;;2.42;;
4023;SDS011;2026;51.002;13.668;2023-05-31T12:30:05;5.82;;;2.78;;
4023;SDS011;2026;51.002;13.668;2023-05-31T12:35:09;5.00;;;2.38;;
4023;SDS011;2026;51.002;13.668;2023-05-31T12:40:15;4.47;;;2.20;;
4023;SDS011;2026;51.002;13.668;2023-05-31T12:45:25;4.75;;;2.50;;
4023;SDS011;2026;51.002;13.668;2023-05-31T12:50:29;3.72;;;2.40;;
4023;SDS011;2026;51.002;13.668;2023-05-31T12:55:32;5.30;;;2.40;;
4023;SDS011;2026;51.002;13.668;2023-05-31T13:00:37;5.78;;;2.50;;
4023;SDS011;2026;51.002;13.668;2023-05-31T13:05:41;4.20;;;2.40;;
4023;SDS011;2026;51.002;13.668;2023-05-31T13:10:44;8.18;;;2.60;;
4023;SDS011;2026;51.002;13.668;2023-05-31T13:15:48;3.85;;;2.20;;
4023;SDS011;2026;51.002;13.668;2023-05-31T13:20:52;4.40;;;2.40;;
4023;SDS011;2026;51.002;13.668;2023-05-31T13:25:55;7.85;;;2.63;;
4023;SDS011;2026;51.002;13.668;2023-05-31T13:30:59;5.65;;;2.60;;
4023;SDS011;2026;51.002;13.668;2023-05-31T13:36:03;9.98;;;2.95;;
4023;SDS011;2026;51.002;13.668;2023-05-31T13:41:06;3.75;;;2.35;;
4023;SDS011;2026;51.002;13.668;2023-05-31T13:46:12;3.22;;;2.47;;
4023;SDS011;2026;51.002;13.668;2023-05-31T13:51:15;4.05;;;2.75;;
4023;SDS011;2026;51.002;13.668;2023-05-31T13:56:18;4.57;;;2.67;;
4023;SDS011;2026;51.002;13.668;2023-05-31T14:01:24;5.13;;;2.30;;
4023;SDS011;2026;51.002;13.668;2023-05-31T14:06:27;4.70;;;2.70;;
4023;SDS011;2026;51.002;13.668;2023-05-31T14:11:30;3.53;;;2.47;;
4023;SDS011;2026;51.002;13.668;2023-05-31T14:16:35;4.43;;;2.85;;
4023;SDS011;2026;51.002;13.668;2023-05-31T14:21:38;5.43;;;2.65;;
4023;SDS011;2026;51.002;13.668;2023-05-31T14:26:44;3.88;;;2.53;;
4023;SDS011;2026;51.002;13.668;2023-05-31T14:31:48;4.30;;;3.10;;
4023;SDS011;2026;51.002;13.668;2023-05-31T14:36:51;6.38;;;2.65;;
4023;SDS011;2026;51.002;13.668;2023-05-31T14:41:55;3.08;;;2.50;;
4023;SDS011;2026;51.002;13.668;2023-05-31T14:46:59;4.90;;;2.47;;
4023;SDS011;2026;51.002;13.668;2023-05-31T14:52:02;3.85;;;2.58;;
4023;SDS011;2026;51.002;13.668;2023-05-31T14:57:08;7.85;;;2.67;;
4023;SDS011;2026;51.002;13.668;2023-05-31T15:02:13;5.07;;;2.60;;
4023;SDS011;2026;51.002;13.668;2023-05-31T15:07:16;4.57;;;2.85;;
4023;SDS011;2026;51.002;13.668;2023-05-31T15:12:19;4.50;;;3.20;;
4023;SDS011;2026;51.002;13.668;2023-05-31T15:17:24;5.10;;;2.65;;
4023;SDS011;2026;51.002;13.668;2023-05-31T15:22:28;5.13;;;3.20;;
4023;SDS011;2026;51.002;13.668;2023-05-31T15:27:31;5.60;;;3.03;;
4023;SDS011;2026;51.002;13.668;2023-05-31T15:32:35;3.90;;;2.40;;
4023;SDS011;2026;51.002;13.668;2023-05-31T15:37:38;4.57;;;2.65;;
4023;SDS011;2026;51.002;13.668;2023-05-31T15:42:41;3.13;;;2.40;;
4023;SDS011;2026;51.002;13.668;2023-05-31T15:47:46;5.93;;;2.85;;
4023;SDS011;2026;51.002;13.668;2023-05-31T15:52:49;7.00;;;2.78;;
4023;SDS011;2026;51.002;13.668;2023-05-31T15:57:52;3.03;;;2.72;;
4023;SDS011;2026;51.002;13.668;2023-05-31T16:02:56;4.60;;;2.92;;
4023;SDS011;2026;51.002;13.668;2023-05-31T16:08:00;5.00;;;3.03;;
4023;SDS011;2026;51.002;13.668;2023-05-31T16:13:06;3.15;;;2.35;;
4023;SDS011;2026;51.002;13.668;2023-05-31T16:18:11;3.25;;;2.70;;
4023;SDS011;2026;51.002;13.668;2023-05-31T16:23:14;4.70;;;2.92;;
4023;SDS011;2026;51.002;13.668;2023-05-31T16:28:17;4.88;;;3.17;;
4023;SDS011;2026;51.002;13.668;2023-05-31T16:33:22;4.22;;;2.75;;
4023;SDS011;2026;51.002;13.668;2023-05-31T16:38:25;3.60;;;2.70;;
4023;SDS011;2026;51.002;13.668;2023-05-31T16:43:28;4.15;;;2.72;;
4023;SDS011;2026;51.002;13.668;2023-05-31T16:48:33;5.38;;;3.17;;
4023;SDS011;2026;51.002;13.668;2023-05-31T16:53:37;3.60;;;2.90;;
4023;SDS011;2026;51.002;13.668;2023-05-31T16:58:46;3.85;;;2.45;;
4023;SDS011;2026;51.002;13.668;2023-05-31T17:03:51;4.75;;;2.50;;
4023;SDS011;2026;51.002;13.668;2023-05-31T17:08:54;4.95;;;2.78;;
4023;SDS011;2026;51.002;13.668;2023-05-31T17:13:57;6.22;;;3.38;;
4023;SDS011;2026;51.002;13.668;2023-05-31T17:19:01;3.55;;;2.78;;
4023;SDS011;2026;51.002;13.668;2023-05-31T17:24:04;3.58;;;2.80;;
4023;SDS011;2026;51.002;13.668;2023-05-31T17:29:08;5.20;;;2.80;;
4023;SDS011;2026;51.002;13.668;2023-05-31T17:34:12;5.10;;;2.70;;
4023;SDS011;2026;51.002;13.668;2023-05-31T17:39:15;4.97;;;2.80;;
4023;SDS011;2026;51.002;13.668;2023-05-31T17:44:18;5.70;;;3.00;;
4023;SDS011;2026;51.002;13.668;2023-05-31T17:49:23;4.45;;;2.67;;
4023;SDS011;2026;51.002;13.668;2023-05-31T17:54:26;4.90;;;3.08;;
4023;SDS011;2026;51.002;13.668;2023-05-31T17:59:29;7.97;;;2.97;;
4023;SDS011;2026;51.002;13.668;2023-05-31T18:04:33;2.90;;;2.60;;
4023;SDS011;2026;51.002;13.668;2023-05-31T18:09:36;3.83;;;2.97;;
4023;SDS011;2026;51.002;13.668;2023-05-31T18:14:39;5.28;;;2.53;;
4023;SDS011;2026;51.002;13.668;2023-05-31T18:19:44;3.58;;;2.72;;
4023;SDS011;2026;51.002;13.668;2023-05-31T18:24:46;6.43;;;3.67;;
4023;SDS011;2026;51.002;13.668;2023-05-31T18:29:50;4.10;;;3.03;;
4023;SDS011;2026;51.002;13.668;2023-05-31T18:34:54;3.67;;;2.97;;
4023;SDS011;2026;51.002;13.668;2023-05-31T18:39:57;6.72;;;2.90;;
4023;SDS011;2026;51.002;13.668;2023-05-31T18:45:00;6.32;;;2.85;;
4023;SDS011;2026;51.002;13.668;2023-05-31T18:50:05;8.55;;;2.80;;
4023;SDS011;2026;51.002;13.668;2023-05-31T18:55:09;14.13;;;4.50;;
4023;SDS011;2026;51.002;13.668;2023-05-31T19:00:12;27.77;;;11.90;;
4023;SDS011;2026;51.002;13.668;2023-05-31T19:05:18;19.88;;;7.30;;
4023;SDS011;2026;51.002;13.668;2023-05-31T19:10:21;9.38;;;4.30;;
4023;SDS011;2026;51.002;13.668;2023-05-31T19:15:24;6.60;;;3.60;;
4023;SDS011;2026;51.002;13.668;2023-05-31T19:20:29;4.05;;;3.45;;
4023;SDS011;2026;51.002;13.668;2023-05-31T19:25:32;10.13;;;3.17;;
4023;SDS011;2026;51.002;13.668;2023-05-31T19:30:35;7.60;;;3.57;;
4023;SDS011;2026;51.002;13.668;2023-05-31T19:35:40;7.68;;;4.47;;
4023;SDS011;2026;51.002;13.668;2023-05-31T19:40:43;5.82;;;4.65;;
4023;SDS011;2026;51.002;13.668;2023-05-31T19:45:46;4.90;;;3.53;;
4023;SDS011;2026;51.002;13.668;2023-05-31T19:50:50;5.90;;;4.50;;
4023;SDS011;2026;51.002;13.668;2023-05-31T19:55:53;6.70;;;4.57;;
4023;SDS011;2026;51.002;13.668;2023-05-31T20:00:56;5.90;;;4.20;;
4023;SDS011;2026;51.002;13.668;2023-05-31T20:06:01;7.40;;;4.50;;
4023;SDS011;2026;51.002;13.668;2023-05-31T20:11:04;6.10;;;4.40;;
4023;SDS011;2026;51.002;13.668;2023-05-31T20:16:08;5.83;;;3.37;;
4023;SDS011;2026;51.002;13.668;2023-05-31T20:21:13;4.87;;;3.50;;
4023;SDS011;2026;51.002;13.668;2023-05-31T20:26:17;5.43;;;3.40;;
4023;SDS011;2026;51.002;13.668;2023-05-31T20:31:23;9.40;;;5.90;;
4023;SDS011;2026;51.002;13.668;2023-05-31T20:36:27;8.93;;;4.80;;
4023;SDS011;2026;51.002;13.668;2023-05-31T20:41:30;7.70;;;5.00;;
4023;SDS011;2026;51.002;13.668;2023-05-31T20:46:33;7.20;;;6.13;;
4023;SDS011;2026;51.002;13.668;2023-05-31T20:51:37;8.60;;;6.40;;
4023;SDS011;2026;51.002;13.668;2023-05-31T20:56:40;7.90;;;5.67;;
4023;SDS011;2026;51.002;13.668;2023-05-31T21:01:44;6.30;;;4.93;;
4023;SDS011;2026;51.002;13.668;2023-05-31T21:06:48;6.10;;;4.80;;
4023;SDS011;2026;51.002;13.668;2023-05-31T21:11:51;7.90;;;5.40;;
4023;SDS011;2026;51.002;13.668;2023-05-31T21:16:54;6.47;;;4.40;;
4023;SDS011;2026;51.002;13.668;2023-05-31T21:21:59;11.13;;;6.00;;
4023;SDS011;2026;51.002;13.668;2023-05-31T21:27:03;10.83;;;6.37;;
4023;SDS011;2026;51.002;13.668;2023-05-31T21:32:06;9.07;;;5.50;;
4023;SDS011;2026;51.002;13.668;2023-05-31T21:37:11;7.43;;;5.17;;
4023;SDS011;2026;51.002;13.668;2023-05-31T21:42:14;8.57;;;6.97;;
4023;SDS011;2026;51.002;13.668;2023-05-31T21:47:17;11.10;;;7.27;;
4023;SDS011;2026;51.002;13.668;2023-05-31T21:52:21;10.77;;;8.40;;
4023;SDS011;2026;51.002;13.668;2023-05-31T21:57:30;6.87;;;5.20;;
4023;SDS011;2026;51.002;13.668;2023-05-31T22:02:33;7.50;;;5.23;;
4023;SDS011;2026;51.002;13.668;2023-05-31T22:07:38;7.10;;;3.97;;
4023;SDS011;2026;51.002;13.668;2023-05-31T22:12:41;6.77;;;3.90;;
4023;SDS011;2026;51.002;13.668;2023-05-31T22:17:44;8.00;;;4.43;;
4023;SDS011;2026;51.002;13.668;2023-05-31T22:22:55;6.93;;;4.60;;
4023;SDS011;2026;51.002;13.668;2023-05-31T22:27:59;5.47;;;4.13;;
4023;SDS011;2026;51.002;13.668;2023-05-31T22:33:02;6.10;;;4.30;;
4023;SDS011;2026;51.002;13.668;2023-05-31T22:38:06;5.93;;;4.20;;
4023;SDS011;2026;51.002;13.668;2023-05-31T22:43:09;5.93;;;4.40;;
4023;SDS011;2026;51.002;13.668;2023-05-31T22:48:12;8.50;;;4.43;;
4023;SDS011;2026;51.002;13.668;2023-05-31T22:53:16;5.30;;;4.27;;
4023;SDS011;2026;51.002;13.668;2023-05-31T22:58:19;7.00;;;4.90;;
4023;SDS011;2026;51.002;13.668;2023-05-31T23:03:22;6.13;;;5.07;;
4023;SDS011;2026;51.002;13.668;2023-05-31T23:08:27;7.00;;;5.00;;
4023;SDS011;2026;51.002;13.668;2023-05-31T23:13:31;6.73;;;4.60;;
4023;SDS011;2026;51.002;13.668;2023-05-31T23:18:37;6.47;;;5.03;;
4023;SDS011;2026;51.002;13.668;2023-05-31T23:23:41;6.43;;;5.03;;
4023;SDS011;2026;51.002;13.668;2023-05-31T23:28:44;7.10;;;5.27;;
4023;SDS011;2026;51.002;13.668;2023-05-31T23:33:47;5.80;;;4.70;;
4023;SDS011;2026;51.002;13.668;2023-05-31T23:38:51;8.30;;;5.10;;
4023;SDS011;2026;51.002;13.668;2023-05-31T23:43:57;5.53;;;4.27;;
4023;SDS011;2026;51.002;13.668;2023-05-31T23:49:00;8.03;;;4.90;;
4023;SDS011;2026;51.002;13.668;2023-05-31T23:54:05;6.83;;;4.20;;
4023;SDS011;2026;51.002;13.668;2023-05-31T23:59:11;8.20;;;5.20;;
